sensor_id;sensor_type;location;lat;lon;timestamp;P1;durP1;ratioP1;P2;durP2;ratioP2
65045;SDS011;54657;52.022;5.534;2023-04-24T00:01:38;1.40;;;1.30;;
65045;SDS011;54657;52.022;5.534;2023-04-24T00:04:04;1.50;;;1.40;;
65045;SDS011;54657;52.022;5.534;2023-04-24T00:06:31;2.50;;;1.40;;
65045;SDS011;54657;52.022;5.534;2023-04-24T00:09:02;1.90;;;1.30;;
65045;SDS011;54657;52.022;5.534;2023-04-24T00:11:28;1.35;;;1.15;;
65045;SDS011;54657;52.022;5.534;2023-04-24T00:13:55;2.25;;;1.15;;
65045;SDS011;54657;52.022;5.534;2023-04-24T00:16:21;1.15;;;1.00;;
65045;SDS011;54657;52.022;5.534;2023-04-24T00:18:47;1.30;;;1.20;;
65045;SDS011;54657;52.022;5.534;2023-04-24T00:21:13;0.85;;;0.85;;
65045;SDS011;54657;52.022;5.534;2023-04-24T00:23:39;2.92;;;1.00;;
65045;SDS011;54657;52.022;5.534;2023-04-24T00:26:05;1.45;;;0.98;;
65045;SDS011;54657;52.022;5.534;2023-04-24T00:28:31;0.82;;;0.80;;
65045;SDS011;54657;52.022;5.534;2023-04-24T00:30:56;1.05;;;0.90;;
65045;SDS011;54657;52.022;5.534;2023-04-24T00:33:22;1.63;;;0.80;;
65045;SDS011;54657;52.022;5.534;2023-04-24T00:35:47;0.77;;;0.77;;
65045;SDS011;54657;52.022;5.534;2023-04-24T00:38:13;0.88;;;0.88;;
65045;SDS011;54657;52.022;5.534;2023-04-24T00:40:38;1.00;;;0.90;;
65045;SDS011;54657;52.022;5.534;2023-04-24T00:43:04;1.25;;;0.70;;
65045;SDS011;54657;52.022;5.534;2023-04-24T00:45:30;3.60;;;2.78;;
65045;SDS011;54657;52.022;5.534;2023-04-24T00:47:56;0.63;;;0.63;;
65045;SDS011;54657;52.022;5.534;2023-04-24T00:50:22;1.00;;;1.00;;
65045;SDS011;54657;52.022;5.534;2023-04-24T00:52:49;1.30;;;1.17;;
65045;SDS011;54657;52.022;5.534;2023-04-24T00:55:15;0.80;;;0.80;;
65045;SDS011;54657;52.022;5.534;2023-04-24T00:57:41;1.45;;;0.98;;
65045;SDS011;54657;52.022;5.534;2023-04-24T01:00:07;1.00;;;1.00;;
65045;SDS011;54657;52.022;5.534;2023-04-24T01:02:37;1.10;;;1.00;;
65045;SDS011;54657;52.022;5.534;2023-04-24T01:05:06;1.25;;;0.85;;
65045;SDS011;54657;52.022;5.534;2023-04-24T01:07:32;4.30;;;1.17;;
65045;SDS011;54657;52.022;5.534;2023-04-24T01:09:59;1.48;;;1.10;;
65045;SDS011;54657;52.022;5.534;2023-04-24T01:12:25;1.73;;;1.20;;
65045;SDS011;54657;52.022;5.534;2023-04-24T01:14:50;1.25;;;0.88;;
65045;SDS011;54657;52.022;5.534;2023-04-24T01:17:16;2.03;;;1.40;;
65045;SDS011;54657;52.022;5.534;2023-04-24T01:19:41;1.58;;;0.70;;
65045;SDS011;54657;52.022;5.534;2023-04-24T01:22:13;0.40;;;0.40;;
65045;SDS011;54657;52.022;5.534;2023-04-24T01:24:39;0.45;;;0.45;;
65045;SDS011;54657;52.022;5.534;2023-04-24T01:27:06;0.50;;;0.50;;
65045;SDS011;54657;52.022;5.534;2023-04-24T01:29:32;0.52;;;0.52;;
65045;SDS011;54657;52.022;5.534;2023-04-24T01:31:57;0.60;;;0.60;;
65045;SDS011;54657;52.022;5.534;2023-04-24T01:34:23;0.63;;;0.63;;
65045;SDS011;54657;52.022;5.534;2023-04-24T01:36:49;0.50;;;0.50;;
65045;SDS011;54657;52.022;5.534;2023-04-24T01:39:15;0.65;;;0.60;;
65045;SDS011;54657;52.022;5.534;2023-04-24T01:41:41;0.75;;;0.60;;
65045;SDS011;54657;52.022;5.534;2023-04-24T01:44:07;0.70;;;0.70;;
65045;SDS011;54657;52.022;5.534;2023-04-24T01:46:33;0.82;;;0.82;;
65045;SDS011;54657;52.022;5.534;2023-04-24T01:49:00;1.05;;;0.95;;
65045;SDS011;54657;52.022;5.534;2023-04-24T01:51:26;3.55;;;2.53;;
65045;SDS011;54657;52.022;5.534;2023-04-24T01:53:52;1.00;;;0.90;;
65045;SDS011;54657;52.022;5.534;2023-04-24T01:56:19;0.80;;;0.80;;
65045;SDS011;54657;52.022;5.534;2023-04-24T01:58:46;0.75;;;0.75;;
65045;SDS011;54657;52.022;5.534;2023-04-24T02:01:19;0.98;;;0.98;;
65045;SDS011;54657;52.022;5.534;2023-04-24T02:03:45;1.20;;;1.10;;
65045;SDS011;54657;52.022;5.534;2023-04-24T02:06:10;1.65;;;1.55;;
65045;SDS011;54657;52.022;5.534;2023-04-24T02:08:36;2.25;;;1.58;;
65045;SDS011;54657;52.022;5.534;2023-04-24T02:11:02;2.33;;;1.98;;
65045;SDS011;54657;52.022;5.534;2023-04-24T02:13:27;2.00;;;1.90;;
65045;SDS011;54657;52.022;5.534;2023-04-24T02:15:53;6.88;;;4.95;;
65045;SDS011;54657;52.022;5.534;2023-04-24T02:18:19;2.10;;;1.92;;
65045;SDS011;54657;52.022;5.534;2023-04-24T02:20:44;2.58;;;2.05;;
65045;SDS011;54657;52.022;5.534;2023-04-24T02:23:10;1.98;;;1.88;;
65045;SDS011;54657;52.022;5.534;2023-04-24T02:25:36;5.65;;;2.35;;
65045;SDS011;54657;52.022;5.534;2023-04-24T02:28:01;4.38;;;2.40;;
65045;SDS011;54657;52.022;5.534;2023-04-24T02:30:27;2.65;;;2.40;;
65045;SDS011;54657;52.022;5.534;2023-04-24T02:32:53;2.42;;;2.22;;
65045;SDS011;54657;52.022;5.534;2023-04-24T02:35:20;2.15;;;1.95;;
65045;SDS011;54657;52.022;5.534;2023-04-24T02:37:45;2.75;;;2.00;;
65045;SDS011;54657;52.022;5.534;2023-04-24T02:40:11;2.35;;;2.15;;
65045;SDS011;54657;52.022;5.534;2023-04-24T02:42:37;2.65;;;2.22;;
65045;SDS011;54657;52.022;5.534;2023-04-24T02:45:02;3.17;;;2.58;;
65045;SDS011;54657;52.022;5.534;2023-04-24T02:47:28;2.88;;;2.65;;
65045;SDS011;54657;52.022;5.534;2023-04-24T02:49:54;4.40;;;2.97;;
65045;SDS011;54657;52.022;5.534;2023-04-24T02:52:19;3.30;;;2.95;;
65045;SDS011;54657;52.022;5.534;2023-04-24T02:54:45;3.15;;;2.85;;
65045;SDS011;54657;52.022;5.534;2023-04-24T02:57:10;3.58;;;3.22;;
65045;SDS011;54657;52.022;5.534;2023-04-24T02:59:36;3.70;;;3.35;;
65045;SDS011;54657;52.022;5.534;2023-04-24T03:02:01;3.83;;;2.58;;
65045;SDS011;54657;52.022;5.534;2023-04-24T03:04:27;3.78;;;3.40;;
65045;SDS011;54657;52.022;5.534;2023-04-24T03:06:52;3.90;;;3.50;;
65045;SDS011;54657;52.022;5.534;2023-04-24T03:09:19;4.00;;;3.33;;
65045;SDS011;54657;52.022;5.534;2023-04-24T03:11:45;3.78;;;2.92;;
65045;SDS011;54657;52.022;5.534;2023-04-24T03:14:11;5.68;;;3.40;;
65045;SDS011;54657;52.022;5.534;2023-04-24T03:16:37;5.85;;;3.28;;
65045;SDS011;54657;52.022;5.534;2023-04-24T03:19:03;4.10;;;3.70;;
65045;SDS011;54657;52.022;5.534;2023-04-24T03:21:29;3.13;;;2.83;;
65045;SDS011;54657;52.022;5.534;2023-04-24T03:23:54;4.38;;;3.45;;
65045;SDS011;54657;52.022;5.534;2023-04-24T03:26:20;4.97;;;3.63;;
65045;SDS011;54657;52.022;5.534;2023-04-24T03:28:45;3.50;;;3.20;;
65045;SDS011;54657;52.022;5.534;2023-04-24T03:31:11;5.30;;;4.18;;
65045;SDS011;54657;52.022;5.534;2023-04-24T03:33:36;4.18;;;3.75;;
65045;SDS011;54657;52.022;5.534;2023-04-24T03:36:02;6.30;;;4.88;;
65045;SDS011;54657;52.022;5.534;2023-04-24T03:38:28;6.63;;;5.25;;
65045;SDS011;54657;52.022;5.534;2023-04-24T03:40:53;6.55;;;5.50;;
65045;SDS011;54657;52.022;5.534;2023-04-24T03:43:19;8.15;;;6.63;;
65045;SDS011;54657;52.022;5.534;2023-04-24T03:45:45;7.78;;;6.07;;
65045;SDS011;54657;52.022;5.534;2023-04-24T03:48:10;10.05;;;6.95;;
65045;SDS011;54657;52.022;5.534;2023-04-24T03:50:36;10.10;;;7.35;;
65045;SDS011;54657;52.022;5.534;2023-04-24T03:53:01;10.93;;;7.75;;
65045;SDS011;54657;52.022;5.534;2023-04-24T03:55:27;9.77;;;7.57;;
65045;SDS011;54657;52.022;5.534;2023-04-24T03:57:52;11.38;;;7.90;;
65045;SDS011;54657;52.022;5.534;2023-04-24T04:00:18;9.98;;;7.18;;
65045;SDS011;54657;52.022;5.534;2023-04-24T04:02:44;10.02;;;7.38;;
65045;SDS011;54657;52.022;5.534;2023-04-24T04:05:09;10.38;;;7.30;;
65045;SDS011;54657;52.022;5.534;2023-04-24T04:07:35;8.63;;;7.60;;
65045;SDS011;54657;52.022;5.534;2023-04-24T04:10:00;10.07;;;7.85;;
65045;SDS011;54657;52.022;5.534;2023-04-24T04:12:26;11.15;;;7.82;;
65045;SDS011;54657;52.022;5.534;2023-04-24T04:14:52;8.45;;;6.28;;
65045;SDS011;54657;52.022;5.534;2023-04-24T04:17:17;5.38;;;4.68;;
65045;SDS011;54657;52.022;5.534;2023-04-24T04:19:43;5.15;;;4.65;;
65045;SDS011;54657;52.022;5.534;2023-04-24T04:22:08;9.20;;;6.28;;
65045;SDS011;54657;52.022;5.534;2023-04-24T04:24:34;6.70;;;5.70;;
65045;SDS011;54657;52.022;5.534;2023-04-24T04:27:03;6.47;;;5.80;;
65045;SDS011;54657;52.022;5.534;2023-04-24T04:29:29;5.82;;;5.22;;
65045;SDS011;54657;52.022;5.534;2023-04-24T04:31:56;6.90;;;5.25;;
65045;SDS011;54657;52.022;5.534;2023-04-24T04:34:22;5.28;;;4.60;;
65045;SDS011;54657;52.022;5.534;2023-04-24T04:36:48;4.82;;;4.20;;
65045;SDS011;54657;52.022;5.534;2023-04-24T04:39:13;5.35;;;4.07;;
65045;SDS011;54657;52.022;5.534;2023-04-24T04:41:43;3.67;;;3.25;;
65045;SDS011;54657;52.022;5.534;2023-04-24T04:44:09;5.57;;;2.90;;
65045;SDS011;54657;52.022;5.534;2023-04-24T04:46:34;3.50;;;2.95;;
65045;SDS011;54657;52.022;5.534;2023-04-24T04:49:02;3.70;;;3.40;;
65045;SDS011;54657;52.022;5.534;2023-04-24T04:51:28;3.92;;;3.40;;
65045;SDS011;54657;52.022;5.534;2023-04-24T04:53:53;4.10;;;3.70;;
65045;SDS011;54657;52.022;5.534;2023-04-24T04:56:19;3.90;;;3.40;;
65045;SDS011;54657;52.022;5.534;2023-04-24T04:58:45;4.50;;;3.17;;
65045;SDS011;54657;52.022;5.534;2023-04-24T05:01:11;3.10;;;2.67;;
65045;SDS011;54657;52.022;5.534;2023-04-24T05:03:36;2.80;;;2.53;;
65045;SDS011;54657;52.022;5.534;2023-04-24T05:06:02;3.58;;;2.53;;
65045;SDS011;54657;52.022;5.534;2023-04-24T05:08:28;2.20;;;2.00;;
65045;SDS011;54657;52.022;5.534;2023-04-24T05:10:54;2.58;;;2.08;;
65045;SDS011;54657;52.022;5.534;2023-04-24T05:13:20;2.28;;;1.90;;
65045;SDS011;54657;52.022;5.534;2023-04-24T05:15:45;2.38;;;2.15;;
65045;SDS011;54657;52.022;5.534;2023-04-24T05:18:11;1.88;;;1.77;;
65045;SDS011;54657;52.022;5.534;2023-04-24T05:20:37;2.70;;;2.50;;
65045;SDS011;54657;52.022;5.534;2023-04-24T05:23:03;2.42;;;2.22;;
65045;SDS011;54657;52.022;5.534;2023-04-24T05:28:21;2.50;;;2.30;;
65045;SDS011;54657;52.022;5.534;2023-04-24T05:30:46;2.60;;;2.40;;
65045;SDS011;54657;52.022;5.534;2023-04-24T05:33:12;2.67;;;2.15;;
65045;SDS011;54657;52.022;5.534;2023-04-24T05:35:39;2.42;;;2.20;;
65045;SDS011;54657;52.022;5.534;2023-04-24T05:38:10;2.30;;;2.10;;
65045;SDS011;54657;52.022;5.534;2023-04-24T05:40:36;2.58;;;2.13;;
65045;SDS011;54657;52.022;5.534;2023-04-24T05:43:02;2.20;;;2.00;;
65045;SDS011;54657;52.022;5.534;2023-04-24T05:45:27;1.70;;;1.60;;
65045;SDS011;54657;52.022;5.534;2023-04-24T05:47:53;2.30;;;1.98;;
65045;SDS011;54657;52.022;5.534;2023-04-24T05:50:18;1.92;;;1.83;;
65045;SDS011;54657;52.022;5.534;2023-04-24T05:52:44;2.20;;;1.95;;
65045;SDS011;54657;52.022;5.534;2023-04-24T05:55:10;2.45;;;1.92;;
65045;SDS011;54657;52.022;5.534;2023-04-24T05:57:36;1.77;;;1.67;;
65045;SDS011;54657;52.022;5.534;2023-04-24T06:00:01;2.53;;;1.98;;
65045;SDS011;54657;52.022;5.534;2023-04-24T06:02:28;2.45;;;1.90;;
65045;SDS011;54657;52.022;5.534;2023-04-24T06:04:57;2.80;;;1.63;;
65045;SDS011;54657;52.022;5.534;2023-04-24T06:07:26;3.17;;;1.92;;
65045;SDS011;54657;52.022;5.534;2023-04-24T06:09:52;1.98;;;1.52;;
65045;SDS011;54657;52.022;5.534;2023-04-24T06:12:17;1.60;;;1.50;;
65045;SDS011;54657;52.022;5.534;2023-04-24T06:14:43;2.53;;;1.65;;
65045;SDS011;54657;52.022;5.534;2023-04-24T06:17:09;2.50;;;1.60;;
65045;SDS011;54657;52.022;5.534;2023-04-24T06:19:34;1.48;;;1.35;;
65045;SDS011;54657;52.022;5.534;2023-04-24T06:22:00;1.70;;;1.60;;
65045;SDS011;54657;52.022;5.534;2023-04-24T06:24:28;2.30;;;1.75;;
65045;SDS011;54657;52.022;5.534;2023-04-24T06:26:54;1.90;;;1.73;;
65045;SDS011;54657;52.022;5.534;2023-04-24T06:29:20;1.70;;;1.60;;
65045;SDS011;54657;52.022;5.534;2023-04-24T06:31:45;2.03;;;1.83;;
65045;SDS011;54657;52.022;5.534;2023-04-24T06:34:11;2.15;;;1.70;;
65045;SDS011;54657;52.022;5.534;2023-04-24T06:36:36;1.45;;;1.40;;
65045;SDS011;54657;52.022;5.534;2023-04-24T06:39:02;1.83;;;1.73;;
65045;SDS011;54657;52.022;5.534;2023-04-24T06:41:28;1.75;;;1.65;;
65045;SDS011;54657;52.022;5.534;2023-04-24T06:43:54;1.60;;;1.50;;
65045;SDS011;54657;52.022;5.534;2023-04-24T06:46:19;1.65;;;1.20;;
65045;SDS011;54657;52.022;5.534;2023-04-24T06:48:48;1.10;;;1.00;;
65045;SDS011;54657;52.022;5.534;2023-04-24T06:51:15;1.45;;;1.25;;
65045;SDS011;54657;52.022;5.534;2023-04-24T06:53:42;0.90;;;0.90;;
65045;SDS011;54657;52.022;5.534;2023-04-24T06:56:08;1.30;;;1.00;;
65045;SDS011;54657;52.022;5.534;2023-04-24T06:58:33;1.25;;;0.88;;
65045;SDS011;54657;52.022;5.534;2023-04-24T07:00:59;0.90;;;0.90;;
65045;SDS011;54657;52.022;5.534;2023-04-24T07:03:24;1.30;;;1.20;;
65045;SDS011;54657;52.022;5.534;2023-04-24T07:05:50;1.65;;;1.55;;
65045;SDS011;54657;52.022;5.534;2023-04-24T07:08:16;3.08;;;1.83;;
65045;SDS011;54657;52.022;5.534;2023-04-24T07:10:42;5.18;;;2.42;;
65045;SDS011;54657;52.022;5.534;2023-04-24T07:13:09;3.95;;;2.42;;
65045;SDS011;54657;52.022;5.534;2023-04-24T07:15:35;4.13;;;2.95;;
65045;SDS011;54657;52.022;5.534;2023-04-24T07:18:00;3.58;;;2.88;;
65045;SDS011;54657;52.022;5.534;2023-04-24T07:20:26;5.00;;;3.65;;
65045;SDS011;54657;52.022;5.534;2023-04-24T07:22:52;3.92;;;3.47;;
65045;SDS011;54657;52.022;5.534;2023-04-24T07:25:18;6.07;;;4.50;;
65045;SDS011;54657;52.022;5.534;2023-04-24T07:27:44;5.13;;;4.30;;
65045;SDS011;54657;52.022;5.534;2023-04-24T07:30:10;5.00;;;4.15;;
65045;SDS011;54657;52.022;5.534;2023-04-24T07:32:36;7.20;;;4.78;;
65045;SDS011;54657;52.022;5.534;2023-04-24T07:35:02;6.60;;;4.53;;
65045;SDS011;54657;52.022;5.534;2023-04-24T07:37:28;7.85;;;4.82;;
65045;SDS011;54657;52.022;5.534;2023-04-24T07:39:54;12.13;;;5.28;;
65045;SDS011;54657;52.022;5.534;2023-04-24T07:42:19;7.53;;;5.18;;
65045;SDS011;54657;52.022;5.534;2023-04-24T07:44:45;9.02;;;5.10;;
65045;SDS011;54657;52.022;5.534;2023-04-24T07:47:12;8.70;;;4.80;;
65045;SDS011;54657;52.022;5.534;2023-04-24T07:49:41;8.45;;;5.63;;
65045;SDS011;54657;52.022;5.534;2023-04-24T07:52:06;8.80;;;5.45;;
65045;SDS011;54657;52.022;5.534;2023-04-24T07:54:32;9.60;;;6.47;;
65045;SDS011;54657;52.022;5.534;2023-04-24T07:56:58;8.48;;;5.90;;
65045;SDS011;54657;52.022;5.534;2023-04-24T07:59:23;7.97;;;5.32;;
65045;SDS011;54657;52.022;5.534;2023-04-24T08:01:49;11.75;;;5.22;;
65045;SDS011;54657;52.022;5.534;2023-04-24T08:04:14;8.88;;;5.22;;
65045;SDS011;54657;52.022;5.534;2023-04-24T08:06:40;6.75;;;5.45;;
65045;SDS011;54657;52.022;5.534;2023-04-24T08:09:06;9.80;;;5.13;;
65045;SDS011;54657;52.022;5.534;2023-04-24T08:11:32;9.93;;;5.25;;
65045;SDS011;54657;52.022;5.534;2023-04-24T08:13:57;12.13;;;5.18;;
65045;SDS011;54657;52.022;5.534;2023-04-24T08:16:23;9.05;;;5.28;;
65045;SDS011;54657;52.022;5.534;2023-04-24T08:18:49;9.60;;;5.25;;
65045;SDS011;54657;52.022;5.534;2023-04-24T08:21:15;10.82;;;5.25;;
65045;SDS011;54657;52.022;5.534;2023-04-24T08:23:42;7.47;;;4.57;;
65045;SDS011;54657;52.022;5.534;2023-04-24T08:26:08;9.18;;;4.70;;
65045;SDS011;54657;52.022;5.534;2023-04-24T08:28:34;9.93;;;5.65;;
65045;SDS011;54657;52.022;5.534;2023-04-24T08:30:59;7.68;;;3.85;;
65045;SDS011;54657;52.022;5.534;2023-04-24T08:33:25;6.68;;;3.88;;
65045;SDS011;54657;52.022;5.534;2023-04-24T08:35:50;8.32;;;3.75;;
65045;SDS011;54657;52.022;5.534;2023-04-24T08:38:16;6.30;;;3.25;;
65045;SDS011;54657;52.022;5.534;2023-04-24T08:40:42;7.85;;;3.15;;
65045;SDS011;54657;52.022;5.534;2023-04-24T08:43:08;5.97;;;2.75;;
65045;SDS011;54657;52.022;5.534;2023-04-24T08:45:35;5.95;;;2.88;;
65045;SDS011;54657;52.022;5.534;2023-04-24T08:48:01;13.07;;;3.30;;
65045;SDS011;54657;52.022;5.534;2023-04-24T08:50:29;9.98;;;3.75;;
65045;SDS011;54657;52.022;5.534;2023-04-24T08:52:57;15.90;;;3.35;;
65045;SDS011;54657;52.022;5.534;2023-04-24T08:55:23;15.73;;;3.15;;
65045;SDS011;54657;52.022;5.534;2023-04-24T08:57:50;13.77;;;2.72;;
65045;SDS011;54657;52.022;5.534;2023-04-24T09:00:18;13.25;;;2.92;;
65045;SDS011;54657;52.022;5.534;2023-04-24T09:02:45;9.85;;;2.90;;
65045;SDS011;54657;52.022;5.534;2023-04-24T09:05:13;9.25;;;2.28;;
65045;SDS011;54657;52.022;5.534;2023-04-24T09:07:41;11.10;;;2.20;;
65045;SDS011;54657;52.022;5.534;2023-04-24T09:10:14;9.82;;;1.90;;
65045;SDS011;54657;52.022;5.534;2023-04-24T09:12:40;6.57;;;1.85;;
65045;SDS011;54657;52.022;5.534;2023-04-24T09:15:07;10.30;;;2.10;;
65045;SDS011;54657;52.022;5.534;2023-04-24T09:17:33;8.73;;;2.25;;
65045;SDS011;54657;52.022;5.534;2023-04-24T09:20:00;10.35;;;2.67;;
65045;SDS011;54657;52.022;5.534;2023-04-24T09:22:28;7.10;;;2.15;;
65045;SDS011;54657;52.022;5.534;2023-04-24T09:25:02;6.00;;;1.90;;
65045;SDS011;54657;52.022;5.534;2023-04-24T09:27:32;8.20;;;1.88;;
65045;SDS011;54657;52.022;5.534;2023-04-24T09:29:59;8.95;;;2.03;;
65045;SDS011;54657;52.022;5.534;2023-04-24T09:32:25;7.20;;;1.88;;
65045;SDS011;54657;52.022;5.534;2023-04-24T09:35:15;5.85;;;2.03;;
65045;SDS011;54657;52.022;5.534;2023-04-24T09:37:45;6.80;;;1.77;;
65045;SDS011;54657;52.022;5.534;2023-04-24T09:40:12;12.82;;;2.60;;
65045;SDS011;54657;52.022;5.534;2023-04-24T09:45:11;10.68;;;2.20;;
65045;SDS011;54657;52.022;5.534;2023-04-24T09:47:40;6.43;;;2.08;;
65045;SDS011;54657;52.022;5.534;2023-04-24T09:50:13;8.13;;;1.77;;
65045;SDS011;54657;52.022;5.534;2023-04-24T09:55:27;8.52;;;2.20;;
65045;SDS011;54657;52.022;5.534;2023-04-24T09:57:53;4.20;;;1.35;;
65045;SDS011;54657;52.022;5.534;2023-04-24T10:00:29;9.48;;;1.90;;
65045;SDS011;54657;52.022;5.534;2023-04-24T10:03:00;8.15;;;1.90;;
65045;SDS011;54657;52.022;5.534;2023-04-24T10:05:34;8.63;;;2.25;;
65045;SDS011;54657;52.022;5.534;2023-04-24T10:08:05;10.15;;;1.80;;
65045;SDS011;54657;52.022;5.534;2023-04-24T10:10:37;3.50;;;1.80;;
65045;SDS011;54657;52.022;5.534;2023-04-24T10:13:07;7.50;;;2.00;;
65045;SDS011;54657;52.022;5.534;2023-04-24T10:15:35;7.32;;;2.00;;
65045;SDS011;54657;52.022;5.534;2023-04-24T10:18:05;7.00;;;1.65;;
65045;SDS011;54657;52.022;5.534;2023-04-24T10:20:32;5.43;;;1.45;;
65045;SDS011;54657;52.022;5.534;2023-04-24T10:23:00;3.65;;;1.60;;
65045;SDS011;54657;52.022;5.534;2023-04-24T10:25:27;4.18;;;1.77;;
65045;SDS011;54657;52.022;5.534;2023-04-24T10:27:55;3.83;;;1.35;;
65045;SDS011;54657;52.022;5.534;2023-04-24T10:30:24;4.18;;;1.17;;
65045;SDS011;54657;52.022;5.534;2023-04-24T10:32:50;3.95;;;1.58;;
65045;SDS011;54657;52.022;5.534;2023-04-24T10:35:16;5.20;;;1.52;;
65045;SDS011;54657;52.022;5.534;2023-04-24T10:37:48;4.38;;;1.15;;
65045;SDS011;54657;52.022;5.534;2023-04-24T10:40:17;3.28;;;1.10;;
65045;SDS011;54657;52.022;5.534;2023-04-24T10:42:46;2.88;;;1.20;;
65045;SDS011;54657;52.022;5.534;2023-04-24T10:45:20;6.43;;;1.50;;
65045;SDS011;54657;52.022;5.534;2023-04-24T10:50:24;6.75;;;1.38;;
65045;SDS011;54657;52.022;5.534;2023-04-24T10:52:51;4.82;;;1.20;;
65045;SDS011;54657;52.022;5.534;2023-04-24T10:58:11;1.80;;;0.90;;
65045;SDS011;54657;52.022;5.534;2023-04-24T11:00:40;1.80;;;0.88;;
65045;SDS011;54657;52.022;5.534;2023-04-24T11:03:29;1.40;;;0.73;;
65045;SDS011;54657;52.022;5.534;2023-04-24T11:05:58;4.60;;;1.30;;
65045;SDS011;54657;52.022;5.534;2023-04-24T11:11:07;4.50;;;1.10;;
65045;SDS011;54657;52.022;5.534;2023-04-24T11:14:08;4.55;;;0.63;;
65045;SDS011;54657;52.022;5.534;2023-04-24T11:16:30;2.00;;;0.60;;
65045;SDS011;54657;52.022;5.534;2023-04-24T11:21:42;4.35;;;1.23;;
65045;SDS011;54657;52.022;5.534;2023-04-24T11:24:23;2.40;;;1.00;;
65045;SDS011;54657;52.022;5.534;2023-04-24T11:26:51;4.72;;;0.90;;
65045;SDS011;54657;52.022;5.534;2023-04-24T11:29:20;0.85;;;0.65;;
65045;SDS011;54657;52.022;5.534;2023-04-24T11:31:49;1.85;;;0.68;;
65045;SDS011;54657;52.022;5.534;2023-04-24T11:34:16;0.85;;;0.50;;
65045;SDS011;54657;52.022;5.534;2023-04-24T11:36:43;1.15;;;0.60;;
65045;SDS011;54657;52.022;5.534;2023-04-24T11:39:10;2.28;;;0.70;;
65045;SDS011;54657;52.022;5.534;2023-04-24T11:41:36;2.22;;;0.70;;
65045;SDS011;54657;52.022;5.534;2023-04-24T11:44:02;2.50;;;1.00;;
65045;SDS011;54657;52.022;5.534;2023-04-24T11:46:30;0.65;;;0.40;;
65045;SDS011;54657;52.022;5.534;2023-04-24T11:48:57;1.25;;;0.60;;
65045;SDS011;54657;52.022;5.534;2023-04-24T11:51:26;1.75;;;0.70;;
65045;SDS011;54657;52.022;5.534;2023-04-24T11:53:53;1.67;;;0.60;;
65045;SDS011;54657;52.022;5.534;2023-04-24T11:56:21;1.55;;;0.70;;
65045;SDS011;54657;52.022;5.534;2023-04-24T11:58:47;1.88;;;0.80;;
65045;SDS011;54657;52.022;5.534;2023-04-24T12:01:13;2.38;;;0.80;;
65045;SDS011;54657;52.022;5.534;2023-04-24T12:03:39;1.75;;;0.90;;
65045;SDS011;54657;52.022;5.534;2023-04-24T12:06:08;2.20;;;0.60;;
65045;SDS011;54657;52.022;5.534;2023-04-24T12:08:35;3.53;;;0.70;;
65045;SDS011;54657;52.022;5.534;2023-04-24T12:11:02;1.15;;;0.55;;
65045;SDS011;54657;52.022;5.534;2023-04-24T12:13:29;2.30;;;0.73;;
65045;SDS011;54657;52.022;5.534;2023-04-24T12:15:58;1.27;;;0.45;;
65045;SDS011;54657;52.022;5.534;2023-04-24T12:18:26;2.15;;;0.55;;
65045;SDS011;54657;52.022;5.534;2023-04-24T12:20:51;2.50;;;0.68;;
65045;SDS011;54657;52.022;5.534;2023-04-24T12:23:32;1.92;;;0.57;;
65045;SDS011;54657;52.022;5.534;2023-04-24T12:26:00;3.00;;;0.60;;
65045;SDS011;54657;52.022;5.534;2023-04-24T12:28:34;1.40;;;0.50;;
65045;SDS011;54657;52.022;5.534;2023-04-24T12:31:01;3.50;;;0.65;;
65045;SDS011;54657;52.022;5.534;2023-04-24T12:33:27;2.72;;;0.90;;
65045;SDS011;54657;52.022;5.534;2023-04-24T12:35:52;2.92;;;1.05;;
65045;SDS011;54657;52.022;5.534;2023-04-24T12:38:22;4.25;;;0.85;;
65045;SDS011;54657;52.022;5.534;2023-04-24T12:41:01;2.95;;;0.90;;
65045;SDS011;54657;52.022;5.534;2023-04-24T12:43:29;1.88;;;0.82;;
65045;SDS011;54657;52.022;5.534;2023-04-24T12:45:55;4.32;;;1.05;;
65045;SDS011;54657;52.022;5.534;2023-04-24T12:48:21;2.85;;;0.93;;
65045;SDS011;54657;52.022;5.534;2023-04-24T12:50:47;2.50;;;0.90;;
65045;SDS011;54657;52.022;5.534;2023-04-24T12:53:13;3.85;;;1.13;;
65045;SDS011;54657;52.022;5.534;2023-04-24T12:55:39;3.03;;;1.05;;
65045;SDS011;54657;52.022;5.534;2023-04-24T12:58:05;2.85;;;0.88;;
65045;SDS011;54657;52.022;5.534;2023-04-24T13:00:30;3.65;;;1.05;;
65045;SDS011;54657;52.022;5.534;2023-04-24T13:02:56;4.60;;;1.17;;
65045;SDS011;54657;52.022;5.534;2023-04-24T13:05:22;6.82;;;1.35;;
65045;SDS011;54657;52.022;5.534;2023-04-24T13:07:48;5.30;;;1.10;;
65045;SDS011;54657;52.022;5.534;2023-04-24T13:10:13;5.03;;;1.20;;
65045;SDS011;54657;52.022;5.534;2023-04-24T13:12:39;5.72;;;1.20;;
65045;SDS011;54657;52.022;5.534;2023-04-24T13:15:05;5.15;;;1.10;;
65045;SDS011;54657;52.022;5.534;2023-04-24T13:17:31;3.60;;;1.05;;
65045;SDS011;54657;52.022;5.534;2023-04-24T13:19:58;6.65;;;1.60;;
65045;SDS011;54657;52.022;5.534;2023-04-24T13:22:23;4.13;;;1.52;;
65045;SDS011;54657;52.022;5.534;2023-04-24T13:24:49;6.20;;;1.42;;
65045;SDS011;54657;52.022;5.534;2023-04-24T13:27:15;6.75;;;1.42;;
65045;SDS011;54657;52.022;5.534;2023-04-24T13:29:41;5.18;;;1.40;;
65045;SDS011;54657;52.022;5.534;2023-04-24T13:32:08;3.35;;;1.50;;
65045;SDS011;54657;52.022;5.534;2023-04-24T13:34:34;5.72;;;1.33;;
65045;SDS011;54657;52.022;5.534;2023-04-24T13:37:00;8.10;;;1.55;;
65045;SDS011;54657;52.022;5.534;2023-04-24T13:39:25;3.75;;;1.10;;
65045;SDS011;54657;52.022;5.534;2023-04-24T13:41:51;4.90;;;1.40;;
65045;SDS011;54657;52.022;5.534;2023-04-24T13:44:18;8.43;;;1.45;;
65045;SDS011;54657;52.022;5.534;2023-04-24T13:46:45;6.30;;;1.58;;
65045;SDS011;54657;52.022;5.534;2023-04-24T13:49:12;4.15;;;1.35;;
65045;SDS011;54657;52.022;5.534;2023-04-24T13:51:38;6.68;;;1.70;;
65045;SDS011;54657;52.022;5.534;2023-04-24T13:54:04;7.20;;;1.58;;
65045;SDS011;54657;52.022;5.534;2023-04-24T13:56:30;6.50;;;1.52;;
65045;SDS011;54657;52.022;5.534;2023-04-24T13:58:56;5.45;;;1.60;;
65045;SDS011;54657;52.022;5.534;2023-04-24T14:01:22;5.55;;;1.58;;
65045;SDS011;54657;52.022;5.534;2023-04-24T14:03:52;6.50;;;1.50;;
65045;SDS011;54657;52.022;5.534;2023-04-24T14:06:18;3.90;;;1.30;;
65045;SDS011;54657;52.022;5.534;2023-04-24T14:08:44;5.22;;;1.80;;
65045;SDS011;54657;52.022;5.534;2023-04-24T14:11:10;7.65;;;1.73;;
65045;SDS011;54657;52.022;5.534;2023-04-24T14:13:36;6.15;;;1.80;;
65045;SDS011;54657;52.022;5.534;2023-04-24T14:16:02;7.22;;;1.45;;
65045;SDS011;54657;52.022;5.534;2023-04-24T14:18:29;7.18;;;1.38;;
65045;SDS011;54657;52.022;5.534;2023-04-24T14:20:54;6.20;;;1.83;;
65045;SDS011;54657;52.022;5.534;2023-04-24T14:23:20;5.70;;;1.83;;
65045;SDS011;54657;52.022;5.534;2023-04-24T14:25:46;6.30;;;1.63;;
65045;SDS011;54657;52.022;5.534;2023-04-24T14:28:15;3.90;;;1.60;;
65045;SDS011;54657;52.022;5.534;2023-04-24T14:30:41;5.40;;;1.60;;
65045;SDS011;54657;52.022;5.534;2023-04-24T14:33:07;5.95;;;1.77;;
65045;SDS011;54657;52.022;5.534;2023-04-24T14:35:33;5.88;;;2.67;;
65045;SDS011;54657;52.022;5.534;2023-04-24T14:38:02;8.05;;;2.30;;
65045;SDS011;54657;52.022;5.534;2023-04-24T14:40:28;4.90;;;2.30;;
65045;SDS011;54657;52.022;5.534;2023-04-24T14:42:53;4.70;;;1.85;;
65045;SDS011;54657;52.022;5.534;2023-04-24T14:45:19;5.85;;;2.15;;
65045;SDS011;54657;52.022;5.534;2023-04-24T14:47:44;5.95;;;2.10;;
65045;SDS011;54657;52.022;5.534;2023-04-24T14:50:10;5.15;;;1.95;;
65045;SDS011;54657;52.022;5.534;2023-04-24T14:52:37;5.38;;;1.83;;
65045;SDS011;54657;52.022;5.534;2023-04-24T14:55:03;5.97;;;2.05;;
65045;SDS011;54657;52.022;5.534;2023-04-24T14:57:29;8.35;;;2.08;;
65045;SDS011;54657;52.022;5.534;2023-04-24T14:59:54;5.93;;;2.05;;
65045;SDS011;54657;52.022;5.534;2023-04-24T15:02:20;7.68;;;2.03;;
65045;SDS011;54657;52.022;5.534;2023-04-24T15:07:36;4.03;;;1.58;;